Time;durP1;ratioP1;P1;durP2;ratioP2;P2;SDS_P1;SDS_P2;PMS_P1;PMS_P2;Temp;Humidity;BMP_temperature;BMP_pressure;BME280_temperature;BME280_humidity;BME280_pressure;Samples;Min_cycle;Max_cycle;Signal;HPM_P1;HPM_P2
2022/08/01 00:00:23;;;;;;;30.35;15.82;;;;;;;;;;5099305;27;20416;-76
2022/08/01 00:02:49;;;;;;;30.55;15.60;;;18.00;99.90;;;;;;5111421;27;20402;-76
2022/08/01 00:05:15;;;;;;;28.67;15.23;;;18.20;99.90;;;;;;5110498;28;20411;-76
2022/08/01 00:07:41;;;;;;;25.85;14.77;;;;;;;;;;5119574;27;20813;-76
2022/08/01 00:10:14;;;;;;;30.63;15.23;;;18.10;99.90;;;;;;5112686;27;20757;-76
2022/08/01 00:12:41;;;;;;;25.08;14.45;;;17.90;99.90;;;;;;5093377;28;20396;-76
2022/08/01 00:15:08;;;;;;;21.75;12.85;;;;;;;;;;5101846;27;20936;-76
2022/08/01 00:17:34;;;;;;;24.38;13.50;;;;;;;;;;5129504;27;20480;-76
2022/08/01 00:20:00;;;;;;;21.42;12.77;;;18.00;99.90;;;;;;5129213;27;20936;-76
2022/08/01 00:22:26;;;;;;;20.65;12.80;;;;;;;;;;5123281;27;20538;-76
2022/08/01 00:24:52;;;;;;;18.90;12.00;;;17.90;99.90;;;;;;5107259;28;20414;-76
2022/08/01 00:27:18;;;;;;;19.03;11.37;;;17.80;99.90;;;;;;5094077;28;20411;-76
2022/08/01 00:29:44;;;;;;;20.35;11.60;;;;;;;;;;5112724;28;20531;-76
2022/08/01 00:32:10;;;;;;;22.00;11.65;;;;;;;;;;5131379;28;20886;-77
2022/08/01 00:34:36;;;;;;;23.33;12.27;;;;;;;;;;5111875;28;20425;-77
2022/08/01 00:37:01;;;;;;;19.67;10.80;;;17.70;99.90;;;;;;5120029;28;20491;-78
2022/08/01 00:39:27;;;;;;;19.30;10.67;;;;;;;;;;5109713;28;20511;-78
2022/08/01 00:41:54;;;;;;;20.58;10.15;;;;;;;;;;5109627;28;20499;-77
2022/08/01 00:44:20;;;;;;;15.77;8.40;;;;;;;;;;5115583;27;20416;-77
2022/08/01 00:46:46;;;;;;;13.25;7.97;;;;;;;;;;5109689;27;20424;-77
2022/08/01 00:49:12;;;;;;;14.30;7.80;;;;;;;;;;5112362;27;20419;-76
2022/08/01 00:51:38;;;;;;;13.32;7.53;;;;;;;;;;5110504;28;20473;-76
2022/08/01 00:54:05;;;;;;;11.73;7.07;;;;;;;;;;5110237;28;20427;-77
2022/08/01 00:56:31;;;;;;;11.55;7.07;;;;;;;;;;5102479;28;20458;-77
2022/08/01 00:58:57;;;;;;;9.98;6.85;;;;;;;;;;5125072;27;20422;-77
2022/08/01 01:01:23;;;;;;;10.30;6.70;;;;;;;;;;5128678;27;20921;-78
2022/08/01 01:03:49;;;;;;;11.82;6.97;;;;;;;;;;5121370;27;20416;-78
2022/08/01 01:06:59;;;;;;;10.98;7.18;;;17.70;99.90;;;;;;5110909;27;20443;-77
2022/08/01 01:09:25;;;;;;;12.35;7.63;;;;;;;;;;5068004;28;20417;-77
2022/08/01 01:12:06;;;;;;;13.27;7.70;;;;;;;;;;5049935;28;21063;-77
2022/08/01 01:14:46;;;;;;;15.30;8.30;;;17.90;99.90;;;;;;5067564;28;20404;-77
2022/08/01 01:17:15;;;;;;;13.63;8.45;;;;;;;;;;5114014;28;20509;-78
2022/08/01 01:19:44;;;;;;;12.60;8.60;;;;;;;;;;5122215;27;20441;-77
2022/08/01 01:22:21;;;;;;;12.30;8.23;;;17.60;99.90;;;;;;5126966;27;20424;-77
2022/08/01 01:25:09;;;;;;;12.30;8.20;;;17.60;99.90;;;;;;5105367;28;20444;-77
2022/08/01 01:27:35;;;;;;;13.95;9.00;;;;;;;;;;5097558;28;20411;-77
2022/08/01 01:30:02;;;;;;;16.95;9.10;;;17.60;99.90;;;;;;5130885;27;20456;-77
2022/08/01 01:32:37;;;;;;;14.77;9.10;;;17.80;99.90;;;;;;5114399;27;20519;-77
2022/08/01 01:35:08;;;;;;;13.80;9.00;;;17.80;99.90;;;;;;5115279;27;20426;-77
2022/08/01 01:37:36;;;;;;;16.23;9.50;;;;;;;;;;5126679;27;20464;-77
2022/08/01 01:40:04;;;;;;;18.48;9.95;;;17.40;99.90;;;;;;5117191;27;20460;-77
2022/08/01 01:42:30;;;;;;;15.88;9.43;;;;;;;;;;5124439;27;20495;-76
2022/08/01 01:44:58;;;;;;;17.90;8.60;;;17.70;99.90;;;;;;5096239;28;20817;-76
2022/08/01 01:47:26;;;;;;;13.93;7.95;;;17.50;99.90;;;;;;5122732;27;20450;-76
2022/08/01 01:49:55;;;;;;;11.32;7.45;;;17.40;99.90;;;;;;5135024;27;20481;-77
2022/08/01 01:52:24;;;;;;;9.55;5.60;;;17.30;99.90;;;;;;5118590;27;20935;-77
2022/08/01 01:54:51;;;;;;;11.05;4.75;;;17.10;99.90;;;;;;5127036;27;20924;-77
2022/08/01 01:57:18;;;;;;;8.45;5.35;;;17.10;99.90;;;;;;5134166;27;20843;-77
2022/08/01 01:59:47;;;;;;;8.35;5.75;;;17.30;99.90;;;;;;5116820;27;20928;-77
2022/08/01 02:02:15;;;;;;;9.82;5.55;;;;;;;;;;5130621;27;20930;-77
2022/08/01 02:04:43;;;;;;;11.00;5.10;;;17.50;99.90;;;;;;5130443;27;20407;-77
2022/08/01 02:07:12;;;;;;;8.90;5.00;;;17.10;99.90;;;;;;5132531;27;20410;-77
2022/08/01 02:09:41;;;;;;;9.38;4.53;;;17.50;99.90;;;;;;5115105;27;20491;-77
2022/08/01 02:12:08;;;;;;;6.15;3.92;;;;;;;;;;5127834;27;20962;-77
2022/08/01 02:14:35;;;;;;;8.37;3.90;;;17.20;99.90;;;;;;5132378;27;20390;-77
2022/08/01 02:17:03;;;;;;;7.03;3.40;;;16.80;99.90;;;;;;5116264;27;20454;-76
2022/08/01 02:19:30;;;;;;;9.90;3.90;;;17.10;99.90;;;;;;5113257;28;20430;-76
2022/08/01 02:22:04;;;;;;;7.47;3.80;;;17.10;99.90;;;;;;5125720;27;20430;-76
2022/08/01 02:24:30;;;;;;;8.33;3.97;;;;;;;;;;5116839;27;20425;-76
2022/08/01 02:26:59;;;;;;;9.32;4.20;;;;;;;;;;5139350;27;20465;-76
2022/08/01 02:29:32;;;;;;;11.05;4.68;;;16.90;99.90;;;;;;5151929;27;20397;-77
2022/08/01 02:32:00;;;;;;;8.35;4.63;;;17.20;99.90;;;;;;5113664;27;20416;-77
2022/08/01 02:34:31;;;;;;;12.35;5.00;;;17.10;99.90;;;;;;5112500;27;20499;-77
2022/08/01 02:37:00;;;;;;;11.70;5.20;;;17.20;99.90;;;;;;5120560;27;20425;-76
2022/08/01 02:39:27;;;;;;;11.77;5.03;;;;;;;;;;5133302;27;20482;-76
2022/08/01 02:41:58;;;;;;;11.27;5.25;;;17.20;99.90;;;;;;5126172;27;20834;-76
2022/08/01 02:44:29;;;;;;;10.32;4.93;;;17.20;99.90;;;;;;5105225;27;20451;-76
2022/08/01 02:47:02;;;;;;;14.80;5.60;;;17.20;99.90;;;;;;5133859;27;20448;-77
2022/08/01 02:49:35;;;;;;;13.20;5.40;;;16.90;99.90;;;;;;5133485;27;20421;-77
2022/08/01 02:52:06;;;;;;;13.05;5.60;;;17.10;99.90;;;;;;5130539;27;20410;-77
2022/08/01 02:54:33;;;;;;;13.30;5.80;;;17.10;99.90;;;;;;5123208;27;20896;-77
2022/08/01 02:57:00;;;;;;;13.50;5.50;;;;;;;;;;5100957;27;20773;-77
2022/08/01 02:59:27;;;;;;;15.15;5.97;;;;;;;;;;5119896;27;20447;-76
2022/08/01 03:01:59;;;;;;;13.40;5.55;;;17.20;99.90;;;;;;5105576;27;20497;-77
2022/08/01 03:04:25;;;;;;;16.83;6.43;;;;;;;;;;5126708;27;20400;-77
2022/08/01 03:06:52;;;;;;;17.08;6.45;;;;;;;;;;5128466;27;20452;-77
2022/08/01 03:09:18;;;;;;;14.73;6.18;;;;;;;;;;5117902;27;20409;-78
2022/08/01 03:11:46;;;;;;;15.80;5.90;;;17.00;99.90;;;;;;5112603;27;20420;-77
2022/08/01 03:14:13;;;;;;;12.55;5.55;;;;;;;;;;5117834;27;20446;-77
2022/08/01 03:16:42;;;;;;;11.50;5.17;;;17.00;99.90;;;;;;5103161;27;20544;-77
2022/08/01 03:19:10;;;;;;;13.15;5.30;;;16.80;99.90;;;;;;5132553;27;20467;-78
2022/08/01 03:21:38;;;;;;;15.10;5.82;;;16.60;99.90;;;;;;5130053;27;20471;-77
2022/08/01 03:24:06;;;;;;;14.43;5.45;;;16.70;99.90;;;;;;5130275;27;20493;-77
2022/08/01 03:26:34;;;;;;;17.02;6.25;;;16.90;99.90;;;;;;5100054;27;20564;-77
2022/08/01 03:29:08;;;;;;;13.85;5.93;;;16.70;99.90;;;;;;5111769;28;20400;-77
2022/08/01 03:31:38;;;;;;;16.45;6.25;;;;;;;;;;5121679;27;20495;-77
2022/08/01 03:34:06;;;;;;;17.10;6.85;;;16.60;99.90;;;;;;5110441;27;20430;-78
2022/08/01 03:36:33;;;;;;;17.10;6.43;;;17.10;99.90;;;;;;5111860;27;20463;-77
2022/08/01 03:39:02;;;;;;;17.20;6.68;;;16.80;99.90;;;;;;5094357;28;20442;-77
2022/08/01 03:41:37;;;;;;;16.23;6.47;;;16.70;99.90;;;;;;5118270;27;20425;-77
2022/08/01 03:44:13;;;;;;;20.17;7.25;;;16.70;99.90;;;;;;5102480;27;20447;-77
2022/08/01 03:46:53;;;;;;;15.75;6.97;;;16.90;99.90;;;;;;5115251;27;20450;-76
2022/08/01 03:49:29;;;;;;;16.35;7.18;;;;;;;;;;5111541;28;20403;-76
2022/08/01 03:51:56;;;;;;;24.90;7.95;;;;;;;;;;5113044;27;20404;-76
2022/08/01 03:54:24;;;;;;;19.05;7.22;;;16.60;99.90;;;;;;5120926;27;20921;-76
2022/08/01 03:56:51;;;;;;;17.73;7.40;;;16.80;99.90;;;;;;5111921;27;20417;-77
2022/08/01 03:59:18;;;;;;;18.02;6.90;;;;;;;;;;5117521;27;20909;-77
2022/08/01 04:01:45;;;;;;;21.60;7.17;;;;;;;;;;5103484;27;20493;-76
2022/08/01 04:04:12;;;;;;;20.77;7.38;;;16.50;99.90;;;;;;5115780;27;20419;-76
2022/08/01 04:06:39;;;;;;;21.27;7.15;;;16.60;99.90;;;;;;5114393;28;20394;-76
2022/08/01 04:09:05;;;;;;;21.17;6.60;;;;;;;;;;5128568;27;20410;-76
2022/08/01 04:11:31;;;;;;;16.60;6.68;;;;;;;;;;5131062;27;20452;-76
2022/08/01 04:13:57;;;;;;;17.42;6.10;;;;;;;;;;5128313;27;21077;-76
2022/08/01 04:16:23;;;;;;;20.98;6.93;;;;;;;;;;5129910;27;20391;-77
2022/08/01 04:18:49;;;;;;;23.45;6.68;;;;;;;;;;5131405;27;20405;-76
2022/08/01 04:21:18;;;;;;;17.77;6.70;;;;;;;;;;5129841;27;20423;-76
2022/08/01 04:23:44;;;;;;;20.77;6.30;;;;;;;;;;5111606;27;20497;-78
2022/08/01 04:26:11;;;;;;;19.57;6.50;;;;;;;;;;5130149;27;20437;-76
2022/08/01 04:28:38;;;;;;;16.70;5.75;;;16.60;99.90;;;;;;5132116;27;20474;-76
2022/08/01 04:31:09;;;;;;;19.50;6.17;;;16.30;99.90;;;;;;5116311;28;20454;-76
2022/08/01 04:33:38;;;;;;;20.40;5.65;;;;;;;;;;5130153;27;20791;-76
2022/08/01 04:36:06;;;;;;;20.23;6.30;;;16.50;99.90;;;;;;5123151;27;20410;-76
2022/08/01 04:38:36;;;;;;;15.60;5.90;;;16.60;99.90;;;;;;5128600;28;20468;-76
2022/08/01 04:41:02;;;;;;;18.55;5.93;;;;;;;;;;5093803;28;20771;-76
2022/08/01 04:43:28;;;;;;;18.60;5.63;;;16.40;99.90;;;;;;5102359;28;20552;-76
2022/08/01 04:45:54;;;;;;;18.27;5.40;;;;;;;;;;5106123;28;20501;-76
2022/08/01 04:48:21;;;;;;;22.73;5.90;;;;;;;;;;5129648;28;21761;-77
2022/08/01 04:50:47;;;;;;;20.95;5.93;;;;;;;;;;5129669;27;20836;-76
2022/08/01 04:53:16;;;;;;;19.73;5.60;;;16.50;99.90;;;;;;5129624;27;20489;-76
2022/08/01 04:55:43;;;;;;;17.30;5.20;;;16.30;99.90;;;;;;5123346;28;20910;-76
2022/08/01 04:58:10;;;;;;;16.65;5.10;;;16.40;99.90;;;;;;5131293;28;20394;-76
2022/08/01 05:00:35;;;;;;;17.80;4.60;;;16.10;99.90;;;;;;5117699;27;20414;-76
2022/08/01 05:03:01;;;;;;;17.25;5.05;;;16.30;99.90;;;;;;5116143;27;20475;-76
2022/08/01 05:05:30;;;;;;;15.80;4.47;;;;;;;;;;5127382;27;21798;-76
2022/08/01 05:07:56;;;;;;;18.13;4.78;;;;;;;;;;5136342;27;20399;-76
2022/08/01 05:10:22;;;;;;;15.63;4.63;;;;;;;;;;5128580;27;20416;-76
2022/08/01 05:12:48;;;;;;;16.77;4.75;;;;;;;;;;5140809;27;20417;-76
2022/08/01 05:15:14;;;;;;;16.52;4.70;;;16.30;99.90;;;;;;5142355;27;20421;-77
2022/08/01 05:17:39;;;;;;;15.80;4.60;;;16.10;99.90;;;;;;5104002;27;20416;-77
2022/08/01 05:20:08;;;;;;;22.17;5.60;;;16.30;99.90;;;;;;5114773;27;20904;-77
2022/08/01 05:22:33;;;;;;;21.33;5.73;;;16.20;99.90;;;;;;5121267;27;20957;-77
2022/08/01 05:24:59;;;;;;;25.50;5.57;;;16.40;99.90;;;;;;5114412;28;20412;-76
2022/08/01 05:27:25;;;;;;;21.30;5.30;;;16.20;99.90;;;;;;5114235;28;20844;-77
2022/08/01 05:29:51;;;;;;;21.85;5.05;;;16.30;99.90;;;;;;5128118;27;20391;-77
2022/08/01 05:32:17;;;;;;;19.37;4.97;;;16.30;99.90;;;;;;5100924;27;20398;-77
2022/08/01 05:34:43;;;;;;;22.70;4.97;;;;;;;;;;5132286;27;20415;-76
2022/08/01 05:37:09;;;;;;;19.52;5.20;;;;;;;;;;5132095;27;20482;-75
2022/08/01 05:39:36;;;;;;;23.27;5.60;;;;;;;;;;5123693;27;20416;-75
2022/08/01 05:42:02;;;;;;;22.48;5.15;;;;;;;;;;5130769;27;20826;-75
2022/08/01 05:44:27;;;;;;;23.10;5.22;;;16.20;99.90;;;;;;5124048;27;20787;-75
2022/08/01 05:46:53;;;;;;;22.95;5.30;;;;;;;;;;5131650;27;20430;-75
2022/08/01 05:49:19;;;;;;;18.70;5.10;;;16.40;99.90;;;;;;5126884;27;20990;-76
2022/08/01 05:51:45;;;;;;;20.67;5.35;;;16.10;99.90;;;;;;5115939;27;20511;-75
2022/08/01 05:54:11;;;;;;;21.70;5.30;;;16.20;99.90;;;;;;5125822;27;20427;-75
2022/08/01 05:56:36;;;;;;;18.83;5.07;;;16.30;99.90;;;;;;5133843;27;20429;-75
2022/08/01 05:59:03;;;;;;;18.70;4.37;;;;;;;;;;5128658;27;20470;-75
2022/08/01 06:01:29;;;;;;;20.15;4.70;;;;;;;;;;5131438;27;20553;-76
2022/08/01 06:03:54;;;;;;;18.20;4.05;;;15.90;99.90;;;;;;5133808;27;20390;-76
2022/08/01 06:06:21;;;;;;;20.10;5.45;;;15.90;99.90;;;;;;5111440;28;20426;-76
2022/08/01 06:08:47;;;;;;;21.70;5.35;;;;;;;;;;5118582;27;20419;-75
2022/08/01 06:11:13;;;;;;;22.17;5.03;;;;;;;;;;5132089;27;20429;-76
2022/08/01 06:13:39;;;;;;;25.17;4.97;;;16.20;99.90;;;;;;5128204;27;20420;-72
2022/08/01 06:16:05;;;;;;;17.33;4.90;;;;;;;;;;5125747;27;20505;-73
2022/08/01 06:18:31;;;;;;;19.95;4.90;;;16.10;99.90;;;;;;5113894;27;20543;-72
2022/08/01 06:20:57;;;;;;;18.80;5.53;;;;;;;;;;5106504;28;20466;-72
2022/08/01 06:23:23;;;;;;;20.85;5.38;;;;;;;;;;5121184;27;20421;-72
2022/08/01 06:25:52;;;;;;;23.48;4.90;;;;;;;;;;5115993;27;20450;-73
2022/08/01 06:28:18;;;;;;;18.48;4.55;;;16.30;99.90;;;;;;5114873;27;20760;-72
2022/08/01 06:30:44;;;;;;;20.00;5.00;;;;;;;;;;5111564;27;20422;-72
2022/08/01 06:33:10;;;;;;;19.85;5.15;;;16.20;99.90;;;;;;5123451;27;20462;-72
2022/08/01 06:35:36;;;;;;;18.67;5.40;;;;;;;;;;5131143;27;20828;-72
2022/08/01 06:38:02;;;;;;;20.88;5.03;;;;;;;;;;5112125;27;20470;-72
2022/08/01 06:40:28;;;;;;;20.60;4.93;;;16.30;99.90;;;;;;5124581;27;20475;-72
2022/08/01 06:42:54;;;;;;;22.80;5.40;;;;;;;;;;5129934;27;20501;-72
2022/08/01 06:45:22;;;;;;;22.47;5.47;;;16.30;99.90;;;;;;5132155;27;20866;-72
2022/08/01 06:47:48;;;;;;;19.30;4.65;;;;;;;;;;5125152;27;20412;-72
2022/08/01 06:50:14;;;;;;;21.58;5.28;;;;;;;;;;5126737;27;20962;-72
2022/08/01 06:52:41;;;;;;;18.98;4.65;;;;;;;;;;5128931;27;20459;-72
2022/08/01 06:55:07;;;;;;;18.02;4.65;;;16.60;99.90;;;;;;5134107;27;20812;-72
2022/08/01 06:57:33;;;;;;;16.55;4.38;;;16.70;99.90;;;;;;5124930;27;20989;-71
2022/08/01 07:00:05;;;;;;;17.13;4.60;;;16.70;99.90;;;;;;5118825;27;20501;-72
2022/08/01 07:02:31;;;;;;;15.70;4.30;;;;;;;;;;5106389;27;20451;-72
2022/08/01 07:05:00;;;;;;;17.20;4.60;;;16.60;99.90;;;;;;5116373;27;20422;-72
2022/08/01 07:07:26;;;;;;;16.75;4.57;;;;;;;;;;5106476;27;20469;-71
2022/08/01 07:09:52;;;;;;;14.35;4.57;;;16.70;99.90;;;;;;5113826;27;20430;-72
2022/08/01 07:12:17;;;;;;;16.08;4.03;;;16.90;99.90;;;;;;5126754;27;20501;-71
2022/08/01 07:14:44;;;;;;;15.80;3.70;;;;;;;;;;5113337;27;20422;-72
2022/08/01 07:17:10;;;;;;;17.57;3.67;;;;;;;;;;5119444;27;20934;-72
2022/08/01 07:19:36;;;;;;;13.57;3.60;;;17.20;99.90;;;;;;5126946;27;20920;-72
2022/08/01 07:22:02;;;;;;;16.05;3.30;;;17.00;99.90;;;;;;5125451;27;20452;-71
2022/08/01 07:24:28;;;;;;;15.33;3.57;;;17.10;99.90;;;;;;5131238;27;20402;-72
2022/08/01 07:26:57;;;;;;;10.43;3.00;;;;;;;;;;5113863;27;20419;-72
2022/08/01 07:29:26;;;;;;;14.43;3.23;;;;;;;;;;5110905;27;20453;-71
2022/08/01 07:31:53;;;;;;;14.68;3.33;;;;;;;;;;5118982;27;20459;-71
2022/08/01 07:34:19;;;;;;;13.30;3.50;;;17.40;99.90;;;;;;5129378;27;20410;-71
2022/08/01 07:36:45;;;;;;;16.88;3.33;;;17.60;99.90;;;;;;5111633;28;20784;-71
2022/08/01 07:39:11;;;;;;;15.40;3.22;;;17.70;99.90;;;;;;5124811;27;20431;-72
2022/08/01 07:41:36;;;;;;;16.38;3.20;;;17.50;99.90;;;;;;5109164;28;20557;-71
2022/08/01 07:44:03;;;;;;;13.10;3.45;;;17.60;99.90;;;;;;5132257;27;20427;-71
2022/08/01 07:46:30;;;;;;;14.65;3.15;;;17.60;99.90;;;;;;5135744;27;20424;-72
2022/08/01 07:48:56;;;;;;;12.15;2.92;;;;;;;;;;5118275;27;20505;-71
2022/08/01 07:51:22;;;;;;;13.65;2.88;;;;;;;;;;5119146;27;20426;-71
2022/08/01 07:53:48;;;;;;;14.00;3.13;;;;;;;;;;5111366;28;20426;-71
2022/08/01 07:56:14;;;;;;;13.73;3.25;;;18.10;99.90;;;;;;5110694;28;20503;-71
2022/08/01 07:58:40;;;;;;;11.27;3.15;;;18.00;99.90;;;;;;5111315;28;20479;-71
2022/08/01 08:01:06;;;;;;;12.63;3.28;;;18.50;99.90;;;;;;5110830;28;20451;-72
2022/08/01 08:03:31;;;;;;;13.82;2.72;;;18.30;99.90;;;;;;5123846;27;20414;-72
2022/08/01 08:05:57;;;;;;;13.02;3.63;;;18.80;99.90;;;;;;5130182;27;20766;-71
2022/08/01 08:08:23;;;;;;;12.73;2.60;;;18.90;99.90;;;;;;5130608;27;20920;-71
2022/08/01 08:10:49;;;;;;;14.15;3.10;;;19.10;99.90;;;;;;5114526;27;20394;-71
2022/08/01 08:13:15;;;;;;;14.25;2.55;;;18.90;99.90;;;;;;5121895;27;20493;-71
2022/08/01 08:15:41;;;;;;;10.05;2.45;;;;;;;;;;5111016;28;20392;-71
2022/08/01 08:18:07;;;;;;;13.38;3.15;;;;;;;;;;5093827;28;20400;-71
2022/08/01 08:20:34;;;;;;;14.90;2.97;;;18.80;99.90;;;;;;5110898;28;20459;-71
2022/08/01 08:22:59;;;;;;;14.07;2.88;;;19.00;99.90;;;;;;5111857;28;22621;-71
2022/08/01 08:25:25;;;;;;;11.48;2.45;;;18.80;99.90;;;;;;5131278;28;20406;-71
2022/08/01 08:27:52;;;;;;;14.50;3.25;;;18.70;99.90;;;;;;5131291;28;20402;-71
2022/08/01 08:30:18;;;;;;;11.35;2.40;;;;;;;;;;5112732;28;20395;-71
2022/08/01 08:32:44;;;;;;;14.40;2.55;;;18.70;99.90;;;;;;5110968;28;20871;-71
2022/08/01 08:35:10;;;;;;;11.68;2.60;;;18.90;99.90;;;;;;5113183;28;20501;-71
2022/08/01 08:37:37;;;;;;;12.18;2.65;;;18.90;99.90;;;;;;5115180;28;20443;-71
2022/08/01 08:40:05;;;;;;;8.75;2.00;;;19.00;99.90;;;;;;5115008;28;20392;-71
2022/08/01 08:42:30;;;;;;;14.10;2.67;;;19.20;99.90;;;;;;5113265;28;20726;-71
2022/08/01 08:44:56;;;;;;;9.52;2.40;;;19.40;99.90;;;;;;5115849;28;20410;-71
2022/08/01 08:47:24;;;;;;;9.50;2.78;;;19.50;99.90;;;;;;5114451;28;20754;-71
2022/08/01 08:49:53;;;;;;;10.33;2.57;;;19.40;99.90;;;;;;5114884;27;20427;-71
2022/08/01 08:52:20;;;;;;;9.57;2.38;;;;;;;;;;5114897;27;20442;-71
2022/08/01 08:54:47;;;;;;;10.20;2.83;;;19.30;99.90;;;;;;5115855;28;20814;-71
2022/08/01 08:57:15;;;;;;;11.03;2.30;;;19.10;99.90;;;;;;5115793;28;20466;-71
2022/08/01 08:59:43;;;;;;;9.30;2.65;;;19.30;99.90;;;;;;5114423;28;20400;-71
2022/08/01 09:02:10;;;;;;;14.13;2.53;;;19.40;99.90;;;;;;5113728;27;22254;-71
2022/08/01 09:04:38;;;;;;;11.82;2.20;;;;;;;;;;5113891;28;20473;-71
2022/08/01 09:07:05;;;;;;;12.82;2.75;;;19.80;99.90;;;;;;5113912;28;20917;-71
2022/08/01 09:09:31;;;;;;;8.90;2.25;;;19.90;99.90;;;;;;5114093;28;20747;-71
2022/08/01 09:11:57;;;;;;;11.52;2.50;;;;;;;;;;5113962;28;20407;-71
2022/08/01 09:14:25;;;;;;;11.50;2.67;;;20.00;99.90;;;;;;5114211;27;20439;-71
2022/08/01 09:17:08;;;;;;;9.10;2.50;;;;;;;;;;5114502;27;20432;-71
2022/08/01 09:19:39;;;;;;;11.27;2.40;;;19.30;99.90;;;;;;5114080;28;20404;-71
2022/08/01 09:22:07;;;;;;;9.38;2.30;;;;;;;;;;5113974;28;20424;-71
2022/08/01 09:24:34;;;;;;;9.52;2.22;;;19.40;99.90;;;;;;5128941;27;20426;-71
2022/08/01 09:27:01;;;;;;;9.23;2.22;;;19.80;99.90;;;;;;5134511;27;20491;-71
2022/08/01 09:29:33;;;;;;;9.13;2.08;;;;;;;;;;5134489;27;20402;-71
2022/08/01 09:32:06;;;;;;;9.73;2.20;;;20.00;99.90;;;;;;5130132;27;20467;-71
2022/08/01 09:34:32;;;;;;;10.60;2.10;;;;;;;;;;5134545;27;20727;-71
2022/08/01 09:37:00;;;;;;;8.70;2.25;;;20.10;99.90;;;;;;5134318;27;20398;-71
2022/08/01 09:39:31;;;;;;;12.00;2.65;;;20.00;99.90;;;;;;5134257;27;20512;-71
2022/08/01 09:41:58;;;;;;;12.02;2.22;;;20.30;99.90;;;;;;5103487;28;20492;-71
2022/08/01 09:44:42;;;;;;;7.80;2.40;;;20.50;99.90;;;;;;5113599;28;20485;-71
2022/08/01 09:47:08;;;;;;;9.20;1.95;;;20.70;99.90;;;;;;5134001;27;20450;-71
2022/08/01 09:49:37;;;;;;;11.48;2.58;;;20.60;99.90;;;;;;5134343;27;20585;-71
2022/08/01 09:52:24;;;;;;;9.05;2.15;;;20.60;99.90;;;;;;5131561;27;20916;-71
2022/08/01 09:54:55;;;;;;;9.25;1.90;;;20.70;99.90;;;;;;5135095;27;20426;-71
2022/08/01 09:57:22;;;;;;;9.55;2.08;;;20.10;99.90;;;;;;5135205;27;20734;-71
2022/08/01 09:59:50;;;;;;;9.90;2.00;;;20.00;99.90;;;;;;5123927;27;20420;-71
2022/08/01 10:02:37;;;;;;;11.05;2.17;;;20.10;99.90;;;;;;5113332;27;20424;-71
2022/08/01 10:05:08;;;;;;;9.50;1.90;;;20.40;99.90;;;;;;5096194;28;20457;-71
2022/08/01 10:07:35;;;;;;;9.27;2.45;;;20.40;99.90;;;;;;5113067;28;20396;-71
2022/08/01 10:10:14;;;;;;;8.98;1.90;;;20.30;99.90;;;;;;5113008;28;20400;-71
2022/08/01 10:12:41;;;;;;;9.32;2.17;;;20.50;99.90;;;;;;5117717;27;20411;-71
2022/08/01 10:15:08;;;;;;;9.38;1.98;;;20.70;99.90;;;;;;5116648;27;20431;-71
2022/08/01 10:17:34;;;;;;;9.57;2.20;;;;;;;;;;5116464;27;20395;-71
2022/08/01 10:20:02;;;;;;;10.40;2.28;;;20.80;99.90;;;;;;5134701;27;20806;-71
2022/08/01 10:22:31;;;;;;;10.75;3.03;;;20.30;99.90;;;;;;5132210;27;20391;-71
2022/08/01 10:25:01;;;;;;;9.27;2.00;;;;;;;;;;5112039;27;21408;-71
2022/08/01 10:27:32;;;;;;;7.90;2.20;;;20.00;99.90;;;;;;5103790;27;20422;-71
2022/08/01 10:30:07;;;;;;;6.15;1.80;;;20.20;99.90;;;;;;5129026;27;20426;-71
2022/08/01 10:32:35;;;;;;;6.40;1.98;;;20.10;99.90;;;;;;5131307;27;20447;-71
2022/08/01 10:35:03;;;;;;;8.00;2.15;;;20.20;99.90;;;;;;5118801;27;20413;-70
2022/08/01 10:37:29;;;;;;;8.05;1.92;;;;;;;;;;5133460;27;20844;-70
2022/08/01 10:39:56;;;;;;;7.27;1.80;;;19.90;99.90;;;;;;5122512;27;20414;-70
2022/08/01 10:42:22;;;;;;;7.93;2.10;;;;;;;;;;5126210;27;20502;-70
2022/08/01 10:44:49;;;;;;;7.15;1.88;;;20.30;99.90;;;;;;5123668;27;20436;-70
2022/08/01 10:47:18;;;;;;;7.40;1.97;;;20.20;99.90;;;;;;5132385;27;20490;-71
2022/08/01 10:49:50;;;;;;;9.57;2.10;;;20.10;99.90;;;;;;5116535;27;20504;-71
2022/08/01 10:52:17;;;;;;;8.75;1.88;;;;;;;;;;5115458;27;20423;-71
2022/08/01 10:54:43;;;;;;;8.63;2.22;;;20.90;99.90;;;;;;5117123;27;20459;-71
2022/08/01 10:57:10;;;;;;;7.75;2.00;;;20.90;99.90;;;;;;5112956;27;20845;-72
2022/08/01 10:59:46;;;;;;;9.43;2.60;;;21.10;99.90;;;;;;5118706;27;20761;-71
2022/08/01 11:02:29;;;;;;;8.07;1.80;;;21.00;99.90;;;;;;5118746;27;20422;-71
2022/08/01 11:05:00;;;;;;;8.45;1.88;;;21.10;99.90;;;;;;5132082;27;20497;-71
2022/08/01 11:07:57;;;;;;;7.43;1.65;;;21.20;99.90;;;;;;5133341;27;20441;-71
2022/08/01 11:10:37;;;;;;;6.70;1.90;;;21.00;99.90;;;;;;5096427;27;20568;-72
2022/08/01 11:13:07;;;;;;;7.20;1.80;;;20.90;99.90;;;;;;5115736;27;20418;-71
2022/08/01 11:15:33;;;;;;;8.05;1.95;;;20.90;99.90;;;;;;5134748;27;20416;-71
2022/08/01 11:18:23;;;;;;;5.57;1.70;;;20.60;99.90;;;;;;5139474;27;20463;-71
2022/08/01 11:20:58;;;;;;;6.68;1.95;;;20.60;99.90;;;;;;5114900;27;20435;-71
2022/08/01 11:23:24;;;;;;;6.43;1.90;;;20.50;99.90;;;;;;5121840;27;20970;-71
2022/08/01 11:25:52;;;;;;;7.47;1.70;;;;;;;;;;5123635;27;20557;-71
2022/08/01 11:28:19;;;;;;;6.43;1.80;;;21.10;99.90;;;;;;5126976;27;20414;-71
2022/08/01 11:30:49;;;;;;;5.47;1.80;;;;;;;;;;5112043;27;20740;-71
2022/08/01 11:33:17;;;;;;;7.63;2.15;;;20.70;99.90;;;;;;5111514;28;20827;-71
2022/08/01 11:36:10;;;;;;;6.85;1.70;;;20.90;99.90;;;;;;5114258;27;20761;-71
2022/08/01 11:38:44;;;;;;;9.05;2.47;;;21.10;99.90;;;;;;5113116;27;20416;-71
2022/08/01 11:41:19;;;;;;;6.18;2.13;;;21.10;99.90;;;;;;5122114;27;20419;-71
2022/08/01 11:44:05;;;;;;;8.98;2.00;;;21.00;99.90;;;;;;5114151;27;20911;-71
2022/08/01 11:46:59;;;;;;;6.75;1.75;;;20.90;99.90;;;;;;5110259;27;20473;-71
2022/08/01 11:49:46;;;;;;;6.95;1.67;;;21.10;99.90;;;;;;5103758;27;20415;-71
2022/08/01 11:52:29;;;;;;;6.35;1.60;;;21.00;99.90;;;;;;5122294;27;20409;-71
2022/08/01 11:54:58;;;;;;;8.80;2.00;;;21.10;99.90;;;;;;5122527;27;20453;-72
2022/08/01 11:57:33;;;;;;;6.43;1.70;;;21.20;99.90;;;;;;5111448;27;20875;-71
2022/08/01 12:00:00;;;;;;;7.80;1.70;;;21.40;99.90;;;;;;5122923;27;20410;-71
2022/08/01 12:02:33;;;;;;;9.48;1.70;;;21.60;99.90;;;;;;5118781;27;20421;-71
2022/08/01 12:05:03;;;;;;;6.85;1.70;;;21.70;99.90;;;;;;5131437;27;20401;-71
2022/08/01 12:07:32;;;;;;;7.93;1.80;;;21.80;99.90;;;;;;5103727;27;20503;-71
2022/08/01 12:10:00;;;;;;;7.38;1.80;;;21.60;99.90;;;;;;5122531;27;20412;-71
2022/08/01 12:12:28;;;;;;;7.15;2.22;;;21.50;99.90;;;;;;5100491;27;20488;-72
2022/08/01 12:14:55;;;;;;;6.97;1.80;;;21.50;99.90;;;;;;5131412;27;20402;-72
2022/08/01 12:17:29;;;;;;;6.10;1.85;;;21.50;99.90;;;;;;5124691;27;20422;-72
2022/08/01 12:19:55;;;;;;;6.78;1.83;;;21.50;99.90;;;;;;5131258;27;20394;-72
2022/08/01 12:22:24;;;;;;;8.43;1.80;;;21.50;99.90;;;;;;5119255;27;20420;-72
2022/08/01 12:24:49;;;;;;;8.18;1.70;;;21.90;99.90;;;;;;5118005;27;20418;-72
2022/08/01 12:27:26;;;;;;;5.20;1.52;;;21.90;99.90;;;;;;5125382;27;20467;-73
2022/08/01 12:29:52;;;;;;;8.75;1.77;;;22.00;99.90;;;;;;5105107;27;20444;-73
2022/08/01 12:32:27;;;;;;;6.53;1.50;;;22.20;99.90;;;;;;5132173;27;20829;-73
2022/08/01 12:34:54;;;;;;;7.20;1.80;;;22.00;99.90;;;;;;5130572;28;20494;-73
2022/08/01 12:37:20;;;;;;;11.02;2.10;;;22.20;99.90;;;;;;5128916;28;20890;-73
2022/08/01 12:39:46;;;;;;;9.07;1.63;;;22.20;99.90;;;;;;5118390;28;20469;-73
2022/08/01 12:42:13;;;;;;;8.25;1.80;;;22.40;99.90;;;;;;5126124;28;20490;-73
2022/08/01 12:44:40;;;;;;;5.53;1.50;;;22.20;99.90;;;;;;5118537;28;20435;-72
2022/08/01 12:47:07;;;;;;;8.70;1.73;;;22.50;99.90;;;;;;5127160;27;20412;-73
2022/08/01 12:49:34;;;;;;;4.90;1.63;;;22.70;99.90;;;;;;5131969;27;20513;-73
2022/08/01 12:52:01;;;;;;;6.68;1.75;;;22.70;99.90;;;;;;5131091;28;20756;-73
2022/08/01 12:54:27;;;;;;;6.80;1.60;;;23.20;99.90;;;;;;5123055;28;20977;-73
2022/08/01 12:56:53;;;;;;;6.20;1.63;;;23.10;99.90;;;;;;5127201;28;20422;-73
2022/08/01 12:59:24;;;;;;;5.03;1.60;;;23.50;99.90;;;;;;5127110;28;20418;-73
2022/08/01 13:01:54;;;;;;;8.23;1.63;;;23.20;99.90;;;;;;5130030;28;20425;-73
2022/08/01 13:04:23;;;;;;;5.47;1.50;;;23.10;99.90;;;;;;5123804;28;20929;-72
2022/08/01 13:06:53;;;;;;;5.03;1.50;;;22.70;99.90;;;;;;5109867;28;20907;-73
2022/08/01 13:09:19;;;;;;;4.78;1.30;;;22.80;99.90;;;;;;5115781;27;20452;-73
2022/08/01 13:11:47;;;;;;;8.37;1.67;;;23.10;99.90;;;;;;5112569;28;20497;-73
2022/08/01 13:14:29;;;;;;;5.95;1.50;;;22.90;99.90;;;;;;5128733;27;20808;-73
2022/08/01 13:16:55;;;;;;;5.57;1.70;;;23.00;99.90;;;;;;5129171;27;20425;-73
2022/08/01 13:19:20;;;;;;;5.60;1.55;;;22.70;99.90;;;;;;5128613;27;20410;-74